sensor_id;sensor_type;location;lat;lon;timestamp;temperature;humidity
66343;DHT22;53144;51.524;5.080;2022-07-12T00:01:03;15.32;91.63
66343;DHT22;53144;51.524;5.080;2022-07-12T00:03:29;15.16;92.16
66343;DHT22;53144;51.524;5.080;2022-07-12T00:05:56;15.09;92.43
66343;DHT22;53144;51.524;5.080;2022-07-12T00:08:21;15.03;92.64
66343;DHT22;53144;51.524;5.080;2022-07-12T00:10:47;15.02;92.91
66343;DHT22;53144;51.524;5.080;2022-07-12T00:13:12;14.96;92.95
66343;DHT22;53144;51.524;5.080;2022-07-12T00:15:38;14.91;93.01
66343;DHT22;53144;51.524;5.080;2022-07-12T00:18:03;14.91;93.37
66343;DHT22;53144;51.524;5.080;2022-07-12T00:20:28;14.95;93.12
66343;DHT22;53144;51.524;5.080;2022-07-12T00:22:54;14.93;93.17
66343;DHT22;53144;51.524;5.080;2022-07-12T00:25:20;14.93;92.84
66343;DHT22;53144;51.524;5.080;2022-07-12T00:27:46;14.91;93.09
66343;DHT22;53144;51.524;5.080;2022-07-12T00:30:11;14.89;92.95
66343;DHT22;53144;51.524;5.080;2022-07-12T00:32:37;14.93;92.53
66343;DHT22;53144;51.524;5.080;2022-07-12T00:35:02;14.98;90.61
66343;DHT22;53144;51.524;5.080;2022-07-12T00:37:28;14.98;89.72
66343;DHT22;53144;51.524;5.080;2022-07-12T00:39:53;14.91;89.98
66343;DHT22;53144;51.524;5.080;2022-07-12T00:42:18;14.85;90.45
66343;DHT22;53144;51.524;5.080;2022-07-12T00:44:44;14.57;91.54
66343;DHT22;53144;51.524;5.080;2022-07-12T00:47:28;14.63;90.55
66343;DHT22;53144;51.524;5.080;2022-07-12T00:49:56;14.34;91.50
66343;DHT22;53144;51.524;5.080;2022-07-12T00:52:22;14.23;92.07
66343;DHT22;53144;51.524;5.080;2022-07-12T00:54:49;14.23;92.81
66343;DHT22;53144;51.524;5.080;2022-07-12T00:57:14;14.19;92.63
66343;DHT22;53144;51.524;5.080;2022-07-12T00:59:39;14.19;92.65
66343;DHT22;53144;51.524;5.080;2022-07-12T01:02:05;14.14;93.15
66343;DHT22;53144;51.524;5.080;2022-07-12T01:04:30;14.12;93.22
66343;DHT22;53144;51.524;5.080;2022-07-12T01:06:55;14.16;93.15
66343;DHT22;53144;51.524;5.080;2022-07-12T01:09:21;14.29;93.19
66343;DHT22;53144;51.524;5.080;2022-07-12T01:11:47;14.24;93.22
66343;DHT22;53144;51.524;5.080;2022-07-12T01:14:12;14.13;93.06
66343;DHT22;53144;51.524;5.080;2022-07-12T01:17:19;13.99;93.12
66343;DHT22;53144;51.524;5.080;2022-07-12T01:19:45;13.95;93.29
66343;DHT22;53144;51.524;5.080;2022-07-12T01:22:10;13.90;93.20
66343;DHT22;53144;51.524;5.080;2022-07-12T01:24:37;13.89;93.24
66343;DHT22;53144;51.524;5.080;2022-07-12T01:27:05;13.87;93.17
66343;DHT22;53144;51.524;5.080;2022-07-12T01:29:31;13.76;93.70
66343;DHT22;53144;51.524;5.080;2022-07-12T01:31:59;13.76;93.72
66343;DHT22;53144;51.524;5.080;2022-07-12T01:34:45;13.72;93.53
66343;DHT22;53144;51.524;5.080;2022-07-12T01:37:14;13.69;93.67
66343;DHT22;53144;51.524;5.080;2022-07-12T01:39:39;13.71;93.70
66343;DHT22;53144;51.524;5.080;2022-07-12T01:42:04;13.66;93.85
66343;DHT22;53144;51.524;5.080;2022-07-12T01:44:31;13.63;93.78
66343;DHT22;53144;51.524;5.080;2022-07-12T01:46:57;13.66;93.75
66343;DHT22;53144;51.524;5.080;2022-07-12T01:49:23;13.69;93.67
66343;DHT22;53144;51.524;5.080;2022-07-12T01:51:48;13.63;93.50
66343;DHT22;53144;51.524;5.080;2022-07-12T01:54:13;13.65;93.86
66343;DHT22;53144;51.524;5.080;2022-07-12T01:56:39;13.68;93.62
66343;DHT22;53144;51.524;5.080;2022-07-12T01:59:05;13.65;93.25
66343;DHT22;53144;51.524;5.080;2022-07-12T02:01:31;13.57;93.21
66343;DHT22;53144;51.524;5.080;2022-07-12T02:04:04;13.59;93.04
66343;DHT22;53144;51.524;5.080;2022-07-12T02:06:30;13.59;92.93
66343;DHT22;53144;51.524;5.080;2022-07-12T02:08:55;13.54;92.88
66343;DHT22;53144;51.524;5.080;2022-07-12T02:11:20;13.48;93.23
66343;DHT22;53144;51.524;5.080;2022-07-12T02:13:46;13.40;93.46
66343;DHT22;53144;51.524;5.080;2022-07-12T02:16:11;13.38;94.18
66343;DHT22;53144;51.524;5.080;2022-07-12T02:18:36;13.40;93.91
66343;DHT22;53144;51.524;5.080;2022-07-12T02:21:02;13.35;93.62
66343;DHT22;53144;51.524;5.080;2022-07-12T02:23:27;13.32;93.98
66343;DHT22;53144;51.524;5.080;2022-07-12T02:25:53;13.27;94.10
66343;DHT22;53144;51.524;5.080;2022-07-12T02:28:18;13.30;93.98
66343;DHT22;53144;51.524;5.080;2022-07-12T02:30:43;13.25;94.51
66343;DHT22;53144;51.524;5.080;2022-07-12T02:33:09;13.30;94.92
66343;DHT22;53144;51.524;5.080;2022-07-12T02:35:34;13.28;95.28
66343;DHT22;53144;51.524;5.080;2022-07-12T02:37:59;13.37;95.17
66343;DHT22;53144;51.524;5.080;2022-07-12T02:40:25;13.34;95.45
66343;DHT22;53144;51.524;5.080;2022-07-12T02:43:09;13.38;95.71
66343;DHT22;53144;51.524;5.080;2022-07-12T02:45:34;13.38;95.95
66343;DHT22;53144;51.524;5.080;2022-07-12T02:48:00;13.38;95.66
66343;DHT22;53144;51.524;5.080;2022-07-12T02:50:25;13.35;95.51
66343;DHT22;53144;51.524;5.080;2022-07-12T02:52:51;13.41;95.31
66343;DHT22;53144;51.524;5.080;2022-07-12T02:55:16;13.41;95.73
66343;DHT22;53144;51.524;5.080;2022-07-12T02:57:41;13.35;95.34
66343;DHT22;53144;51.524;5.080;2022-07-12T03:00:07;13.31;95.11
66343;DHT22;53144;51.524;5.080;2022-07-12T03:02:33;13.30;95.10
66343;DHT22;53144;51.524;5.080;2022-07-12T03:04:58;13.31;95.32
66343;DHT22;53144;51.524;5.080;2022-07-12T03:07:23;13.30;95.16
66343;DHT22;53144;51.524;5.080;2022-07-12T03:09:49;13.24;94.93
66343;DHT22;53144;51.524;5.080;2022-07-12T03:12:14;13.21;95.03
66343;DHT22;53144;51.524;5.080;2022-07-12T03:14:39;13.30;94.38
66343;DHT22;53144;51.524;5.080;2022-07-12T03:17:05;13.28;93.87
66343;DHT22;53144;51.524;5.080;2022-07-12T03:19:30;13.17;93.65
66343;DHT22;53144;51.524;5.080;2022-07-12T03:21:55;13.15;94.10
66343;DHT22;53144;51.524;5.080;2022-07-12T03:24:21;13.07;94.21
66343;DHT22;53144;51.524;5.080;2022-07-12T03:26:46;13.08;94.43
66343;DHT22;53144;51.524;5.080;2022-07-12T03:29:11;13.01;94.45
66343;DHT22;53144;51.524;5.080;2022-07-12T03:31:37;13.07;94.97
66343;DHT22;53144;51.524;5.080;2022-07-12T03:34:02;13.00;95.21
66343;DHT22;53144;51.524;5.080;2022-07-12T03:36:28;13.03;94.86
66343;DHT22;53144;51.524;5.080;2022-07-12T03:38:53;13.00;94.95
66343;DHT22;53144;51.524;5.080;2022-07-12T03:41:18;12.99;94.77
66343;DHT22;53144;51.524;5.080;2022-07-12T03:43:44;13.04;94.72
66343;DHT22;53144;51.524;5.080;2022-07-12T03:46:09;13.08;94.56
66343;DHT22;53144;51.524;5.080;2022-07-12T03:48:35;13.10;94.34
66343;DHT22;53144;51.524;5.080;2022-07-12T03:51:00;13.08;94.52
66343;DHT22;53144;51.524;5.080;2022-07-12T03:53:26;13.10;94.16
66343;DHT22;53144;51.524;5.080;2022-07-12T03:55:51;13.08;93.43
66343;DHT22;53144;51.524;5.080;2022-07-12T03:58:16;13.08;93.46
66343;DHT22;53144;51.524;5.080;2022-07-12T04:00:42;13.01;93.59
66343;DHT22;53144;51.524;5.080;2022-07-12T04:03:08;12.96;93.32
66343;DHT22;53144;51.524;5.080;2022-07-12T04:05:33;12.90;93.31
66343;DHT22;53144;51.524;5.080;2022-07-12T04:07:59;12.86;93.82
66343;DHT22;53144;51.524;5.080;2022-07-12T04:10:27;12.82;93.78
66343;DHT22;53144;51.524;5.080;2022-07-12T04:12:52;12.91;93.67
66343;DHT22;53144;51.524;5.080;2022-07-12T04:15:18;12.90;93.95
66343;DHT22;53144;51.524;5.080;2022-07-12T04:17:43;12.91;94.11
66343;DHT22;53144;51.524;5.080;2022-07-12T04:20:09;12.82;94.31
66343;DHT22;53144;51.524;5.080;2022-07-12T04:22:35;12.73;94.33
66343;DHT22;53144;51.524;5.080;2022-07-12T04:25:00;12.70;94.73
66343;DHT22;53144;51.524;5.080;2022-07-12T04:27:26;12.79;95.02
66343;DHT22;53144;51.524;5.080;2022-07-12T04:29:54;12.91;95.21
66343;DHT22;53144;51.524;5.080;2022-07-12T04:32:19;12.90;94.95
66343;DHT22;53144;51.524;5.080;2022-07-12T04:34:44;13.00;95.32
66343;DHT22;53144;51.524;5.080;2022-07-12T04:37:10;13.06;95.12
66343;DHT22;53144;51.524;5.080;2022-07-12T04:39:35;13.14;95.04
66343;DHT22;53144;51.524;5.080;2022-07-12T04:42:00;13.22;95.25
66343;DHT22;53144;51.524;5.080;2022-07-12T04:44:26;13.31;95.06
66343;DHT22;53144;51.524;5.080;2022-07-12T04:46:51;13.47;94.84
66343;DHT22;53144;51.524;5.080;2022-07-12T04:49:17;13.62;94.59
66343;DHT22;53144;51.524;5.080;2022-07-12T04:51:42;13.83;94.41
66343;DHT22;53144;51.524;5.080;2022-07-12T04:54:07;13.98;94.22
66343;DHT22;53144;51.524;5.080;2022-07-12T04:56:33;14.08;94.23
66343;DHT22;53144;51.524;5.080;2022-07-12T04:58:58;14.19;94.05
66343;DHT22;53144;51.524;5.080;2022-07-12T05:01:24;14.29;93.84
66343;DHT22;53144;51.524;5.080;2022-07-12T05:03:50;14.33;94.06
66343;DHT22;53144;51.524;5.080;2022-07-12T05:06:15;14.47;93.80
66343;DHT22;53144;51.524;5.080;2022-07-12T05:08:41;14.60;93.70
66343;DHT22;53144;51.524;5.080;2022-07-12T05:11:06;14.69;93.61
66343;DHT22;53144;51.524;5.080;2022-07-12T05:13:32;14.79;93.78
66343;DHT22;53144;51.524;5.080;2022-07-12T05:15:57;14.89;93.82
66343;DHT22;53144;51.524;5.080;2022-07-12T05:18:23;14.96;93.82
66343;DHT22;53144;51.524;5.080;2022-07-12T05:20:48;15.16;93.83
66343;DHT22;53144;51.524;5.080;2022-07-12T05:23:13;15.29;93.85
66343;DHT22;53144;51.524;5.080;2022-07-12T05:25:39;15.40;93.67
66343;DHT22;53144;51.524;5.080;2022-07-12T05:28:04;15.49;93.70
66343;DHT22;53144;51.524;5.080;2022-07-12T05:30:30;15.60;93.64
66343;DHT22;53144;51.524;5.080;2022-07-12T05:32:55;15.71;93.37
66343;DHT22;53144;51.524;5.080;2022-07-12T05:35:20;15.83;93.23
66343;DHT22;53144;51.524;5.080;2022-07-12T05:37:46;16.04;92.91
66343;DHT22;53144;51.524;5.080;2022-07-12T05:40:12;16.21;92.51
66343;DHT22;53144;51.524;5.080;2022-07-12T05:42:37;16.39;91.94
66343;DHT22;53144;51.524;5.080;2022-07-12T05:45:04;16.59;91.52
66343;DHT22;53144;51.524;5.080;2022-07-12T05:47:29;16.73;91.09
66343;DHT22;53144;51.524;5.080;2022-07-12T05:49:55;16.77;90.99
66343;DHT22;53144;51.524;5.080;2022-07-12T05:52:20;16.84;91.20
66343;DHT22;53144;51.524;5.080;2022-07-12T05:55:04;16.93;91.46
66343;DHT22;53144;51.524;5.080;2022-07-12T05:57:30;17.04;91.15
66343;DHT22;53144;51.524;5.080;2022-07-12T05:59:55;17.08;90.87
66343;DHT22;53144;51.524;5.080;2022-07-12T06:02:21;17.18;90.19
66343;DHT22;53144;51.524;5.080;2022-07-12T06:04:47;17.24;90.60
66343;DHT22;53144;51.524;5.080;2022-07-12T06:07:12;17.36;90.60
66343;DHT22;53144;51.524;5.080;2022-07-12T06:09:37;17.58;90.26
66343;DHT22;53144;51.524;5.080;2022-07-12T06:12:03;17.72;88.85
66343;DHT22;53144;51.524;5.080;2022-07-12T06:14:29;17.87;88.19
66343;DHT22;53144;51.524;5.080;2022-07-12T06:16:55;17.87;88.27
66343;DHT22;53144;51.524;5.080;2022-07-12T06:19:20;17.93;88.16
66343;DHT22;53144;51.524;5.080;2022-07-12T06:21:48;17.97;88.24
66343;DHT22;53144;51.524;5.080;2022-07-12T06:24:14;18.04;88.25
66343;DHT22;53144;51.524;5.080;2022-07-12T06:26:39;18.09;88.47
66343;DHT22;53144;51.524;5.080;2022-07-12T06:29:05;18.10;88.65
66343;DHT22;53144;51.524;5.080;2022-07-12T06:31:30;18.11;88.50
66343;DHT22;53144;51.524;5.080;2022-07-12T06:33:56;18.14;89.03
66343;DHT22;53144;51.524;5.080;2022-07-12T06:36:21;18.21;88.60
66343;DHT22;53144;51.524;5.080;2022-07-12T06:38:46;18.29;89.01
66343;DHT22;53144;51.524;5.080;2022-07-12T06:41:12;18.45;87.99
66343;DHT22;53144;51.524;5.080;2022-07-12T06:43:38;18.62;87.27
66343;DHT22;53144;51.524;5.080;2022-07-12T06:46:04;18.75;87.32
66343;DHT22;53144;51.524;5.080;2022-07-12T06:48:29;18.82;86.90
66343;DHT22;53144;51.524;5.080;2022-07-12T06:50:54;19.05;85.47
66343;DHT22;53144;51.524;5.080;2022-07-12T06:53:20;19.22;84.34
66343;DHT22;53144;51.524;5.080;2022-07-12T06:55:45;19.31;84.06
66343;DHT22;53144;51.524;5.080;2022-07-12T06:58:11;19.37;85.25
66343;DHT22;53144;51.524;5.080;2022-07-12T07:00:37;19.45;86.52
66343;DHT22;53144;51.524;5.080;2022-07-12T07:03:05;19.57;86.04
66343;DHT22;53144;51.524;5.080;2022-07-12T07:05:31;19.64;85.08
66343;DHT22;53144;51.524;5.080;2022-07-12T07:07:56;19.61;87.22
66343;DHT22;53144;51.524;5.080;2022-07-12T07:10:21;19.58;86.61
66343;DHT22;53144;51.524;5.080;2022-07-12T07:12:47;19.71;85.44
66343;DHT22;53144;51.524;5.080;2022-07-12T07:15:13;19.67;84.84
66343;DHT22;53144;51.524;5.080;2022-07-12T07:17:41;19.82;84.41
66343;DHT22;53144;51.524;5.080;2022-07-12T07:20:09;19.85;83.64
66343;DHT22;53144;51.524;5.080;2022-07-12T07:22:34;19.94;84.38
66343;DHT22;53144;51.524;5.080;2022-07-12T07:25:00;19.98;84.49
66343;DHT22;53144;51.524;5.080;2022-07-12T07:27:25;19.98;84.71
66343;DHT22;53144;51.524;5.080;2022-07-12T07:29:51;20.01;85.37
66343;DHT22;53144;51.524;5.080;2022-07-12T07:32:34;20.11;85.11
66343;DHT22;53144;51.524;5.080;2022-07-12T07:35:00;20.29;81.69
66343;DHT22;53144;51.524;5.080;2022-07-12T07:37:25;20.42;84.43
66343;DHT22;53144;51.524;5.080;2022-07-12T07:39:51;20.43;83.45
66343;DHT22;53144;51.524;5.080;2022-07-12T07:42:16;20.46;82.83
66343;DHT22;53144;51.524;5.080;2022-07-12T07:44:41;20.57;80.67
66343;DHT22;53144;51.524;5.080;2022-07-12T07:47:07;20.69;80.96
66343;DHT22;53144;51.524;5.080;2022-07-12T07:49:32;20.83;78.12
66343;DHT22;53144;51.524;5.080;2022-07-12T07:51:58;20.87;78.77
66343;DHT22;53144;51.524;5.080;2022-07-12T07:54:23;21.03;78.42
66343;DHT22;53144;51.524;5.080;2022-07-12T07:56:49;21.35;77.17
66343;DHT22;53144;51.524;5.080;2022-07-12T07:59:14;21.56;77.15
66343;DHT22;53144;51.524;5.080;2022-07-12T08:01:39;21.72;74.62
66343;DHT22;53144;51.524;5.080;2022-07-12T08:04:12;21.71;74.09
66343;DHT22;53144;51.524;5.080;2022-07-12T08:06:37;21.67;73.95
66343;DHT22;53144;51.524;5.080;2022-07-12T08:09:03;21.65;72.90
66343;DHT22;53144;51.524;5.080;2022-07-12T08:11:30;21.79;72.70
66343;DHT22;53144;51.524;5.080;2022-07-12T08:13:55;21.99;71.77
66343;DHT22;53144;51.524;5.080;2022-07-12T08:16:20;22.04;71.96
66343;DHT22;53144;51.524;5.080;2022-07-12T08:18:46;21.97;72.65
66343;DHT22;53144;51.524;5.080;2022-07-12T08:21:11;21.92;75.20
66343;DHT22;53144;51.524;5.080;2022-07-12T08:23:36;22.06;73.27
66343;DHT22;53144;51.524;5.080;2022-07-12T08:26:02;22.11;72.35
66343;DHT22;53144;51.524;5.080;2022-07-12T08:28:28;22.30;71.12
66343;DHT22;53144;51.524;5.080;2022-07-12T08:30:53;22.51;71.45
66343;DHT22;53144;51.524;5.080;2022-07-12T08:33:19;22.73;70.19
66343;DHT22;53144;51.524;5.080;2022-07-12T08:35:44;22.94;68.60
66343;DHT22;53144;51.524;5.080;2022-07-12T08:38:09;23.08;68.04
66343;DHT22;53144;51.524;5.080;2022-07-12T08:40:35;23.18;66.86
66343;DHT22;53144;51.524;5.080;2022-07-12T08:43:01;23.20;67.81
66343;DHT22;53144;51.524;5.080;2022-07-12T08:45:27;23.24;67.70
66343;DHT22;53144;51.524;5.080;2022-07-12T08:47:52;23.13;67.36
66343;DHT22;53144;51.524;5.080;2022-07-12T08:50:19;22.99;66.78
66343;DHT22;53144;51.524;5.080;2022-07-12T08:52:50;23.00;66.76
66343;DHT22;53144;51.524;5.080;2022-07-12T08:57:43;22.91;67.82
66343;DHT22;53144;51.524;5.080;2022-07-12T09:00:09;22.99;67.95
66343;DHT22;53144;51.524;5.080;2022-07-12T09:02:49;23.22;67.69
66343;DHT22;53144;51.524;5.080;2022-07-12T09:05:25;23.33;66.07
66343;DHT22;53144;51.524;5.080;2022-07-12T09:07:50;23.47;64.38
66343;DHT22;53144;51.524;5.080;2022-07-12T09:10:17;23.39;66.45
66343;DHT22;53144;51.524;5.080;2022-07-12T09:12:44;23.33;65.71
66343;DHT22;53144;51.524;5.080;2022-07-12T09:15:11;23.49;66.07
66343;DHT22;53144;51.524;5.080;2022-07-12T09:17:36;23.67;65.59
66343;DHT22;53144;51.524;5.080;2022-07-12T09:20:02;23.82;64.05
66343;DHT22;53144;51.524;5.080;2022-07-12T09:22:28;23.85;66.15
66343;DHT22;53144;51.524;5.080;2022-07-12T09:24:53;24.05;64.92
66343;DHT22;53144;51.524;5.080;2022-07-12T09:27:25;24.05;64.31
66343;DHT22;53144;51.524;5.080;2022-07-12T09:29:50;24.11;65.34
66343;DHT22;53144;51.524;5.080;2022-07-12T09:32:16;24.15;66.63
66343;DHT22;53144;51.524;5.080;2022-07-12T09:35:00;24.33;66.79
66343;DHT22;53144;51.524;5.080;2022-07-12T09:37:45;24.45;63.20
66343;DHT22;53144;51.524;5.080;2022-07-12T09:40:12;24.55;65.48
66343;DHT22;53144;51.524;5.080;2022-07-12T09:42:39;24.70;64.60
66343;DHT22;53144;51.524;5.080;2022-07-12T09:45:06;24.69;65.04
66343;DHT22;53144;51.524;5.080;2022-07-12T09:47:32;24.77;63.35
66343;DHT22;53144;51.524;5.080;2022-07-12T09:49:58;24.82;64.87
66343;DHT22;53144;51.524;5.080;2022-07-12T09:52:27;24.88;63.13
66343;DHT22;53144;51.524;5.080;2022-07-12T09:54:55;25.21;62.55
66343;DHT22;53144;51.524;5.080;2022-07-12T09:59:50;25.28;59.68
66343;DHT22;53144;51.524;5.080;2022-07-12T10:02:17;25.30;60.80
66343;DHT22;53144;51.524;5.080;2022-07-12T10:04:43;25.31;62.98
66343;DHT22;53144;51.524;5.080;2022-07-12T10:07:11;25.37;58.81
66343;DHT22;53144;51.524;5.080;2022-07-12T10:09:44;25.52;63.14
66343;DHT22;53144;51.524;5.080;2022-07-12T10:12:11;25.51;61.05
66343;DHT22;53144;51.524;5.080;2022-07-12T10:14:41;25.45;60.69
66343;DHT22;53144;51.524;5.080;2022-07-12T10:17:08;25.55;58.02
66343;DHT22;53144;51.524;5.080;2022-07-12T10:19:37;25.68;58.06
66343;DHT22;53144;51.524;5.080;2022-07-12T10:22:04;25.88;59.10
66343;DHT22;53144;51.524;5.080;2022-07-12T10:26:59;26.09;57.70
66343;DHT22;53144;51.524;5.080;2022-07-12T10:29:27;26.23;56.71
66343;DHT22;53144;51.524;5.080;2022-07-12T10:31:52;26.34;55.23
66343;DHT22;53144;51.524;5.080;2022-07-12T10:34:23;26.57;57.26
66343;DHT22;53144;51.524;5.080;2022-07-12T10:39:21;27.22;52.43
66343;DHT22;53144;51.524;5.080;2022-07-12T10:44:39;28.22;49.99
66343;DHT22;53144;51.524;5.080;2022-07-12T10:47:06;28.53;50.11
66343;DHT22;53144;51.524;5.080;2022-07-12T10:49:33;28.17;49.51
66343;DHT22;53144;51.524;5.080;2022-07-12T10:55:16;28.29;52.31
66343;DHT22;53144;51.524;5.080;2022-07-12T10:57:44;27.98;51.78
66343;DHT22;53144;51.524;5.080;2022-07-12T11:00:11;28.04;51.49
66343;DHT22;53144;51.524;5.080;2022-07-12T11:02:38;27.81;49.53
66343;DHT22;53144;51.524;5.080;2022-07-12T11:05:03;28.07;50.92
66343;DHT22;53144;51.524;5.080;2022-07-12T11:07:29;27.98;51.20
66343;DHT22;53144;51.524;5.080;2022-07-12T11:09:55;28.34;49.66
66343;DHT22;53144;51.524;5.080;2022-07-12T11:12:27;29.13;49.39
66343;DHT22;53144;51.524;5.080;2022-07-12T11:14:53;29.25;46.73
66343;DHT22;53144;51.524;5.080;2022-07-12T11:17:29;28.79;46.75
66343;DHT22;53144;51.524;5.080;2022-07-12T11:20:12;28.82;49.01
66343;DHT22;53144;51.524;5.080;2022-07-12T11:22:39;28.87;48.19
66343;DHT22;53144;51.524;5.080;2022-07-12T11:25:09;28.60;48.79
66343;DHT22;53144;51.524;5.080;2022-07-12T11:27:35;28.51;49.08
66343;DHT22;53144;51.524;5.080;2022-07-12T11:30:03;28.79;46.80
66343;DHT22;53144;51.524;5.080;2022-07-12T11:32:39;28.87;48.79
66343;DHT22;53144;51.524;5.080;2022-07-12T11:35:25;28.84;48.61
66343;DHT22;53144;51.524;5.080;2022-07-12T11:37:56;29.35;45.82
66343;DHT22;53144;51.524;5.080;2022-07-12T11:40:29;29.38;46.80
66343;DHT22;53144;51.524;5.080;2022-07-12T11:43:01;29.79;44.84
66343;DHT22;53144;51.524;5.080;2022-07-12T11:45:29;29.83;46.44
66343;DHT22;53144;51.524;5.080;2022-07-12T11:48:01;29.93;46.75
66343;DHT22;53144;51.524;5.080;2022-07-12T11:50:31;30.06;43.96
66343;DHT22;53144;51.524;5.080;2022-07-12T11:52:59;30.30;43.08
66343;DHT22;53144;51.524;5.080;2022-07-12T11:55:25;29.86;44.12
66343;DHT22;53144;51.524;5.080;2022-07-12T11:57:50;29.85;44.88
66343;DHT22;53144;51.524;5.080;2022-07-12T12:00:17;30.10;43.50
66343;DHT22;53144;51.524;5.080;2022-07-12T12:02:43;30.17;46.35
66343;DHT22;53144;51.524;5.080;2022-07-12T12:05:09;30.06;46.47
66343;DHT22;53144;51.524;5.080;2022-07-12T12:07:35;30.30;45.76
66343;DHT22;53144;51.524;5.080;2022-07-12T12:10:02;30.57;44.06
66343;DHT22;53144;51.524;5.080;2022-07-12T12:12:38;31.07;42.14
66343;DHT22;53144;51.524;5.080;2022-07-12T12:15:05;31.07;42.39
66343;DHT22;53144;51.524;5.080;2022-07-12T12:17:32;31.22;46.21
66343;DHT22;53144;51.524;5.080;2022-07-12T12:20:07;30.61;42.68
66343;DHT22;53144;51.524;5.080;2022-07-12T12:22:33;31.01;41.97
66343;DHT22;53144;51.524;5.080;2022-07-12T12:25:00;31.05;41.86
66343;DHT22;53144;51.524;5.080;2022-07-12T12:27:26;31.02;41.58
66343;DHT22;53144;51.524;5.080;2022-07-12T12:29:51;30.39;45.75
66343;DHT22;53144;51.524;5.080;2022-07-12T12:32:17;31.09;42.89
66343;DHT22;53144;51.524;5.080;2022-07-12T12:35:09;30.65;43.35
66343;DHT22;53144;51.524;5.080;2022-07-12T12:37:34;30.45;42.69
66343;DHT22;53144;51.524;5.080;2022-07-12T12:40:01;29.85;45.16
66343;DHT22;53144;51.524;5.080;2022-07-12T12:42:26;29.89;40.40
66343;DHT22;53144;51.524;5.080;2022-07-12T12:44:52;29.78;42.49
66343;DHT22;53144;51.524;5.080;2022-07-12T12:47:17;29.72;48.80
66343;DHT22;53144;51.524;5.080;2022-07-12T12:50:02;30.57;43.78
66343;DHT22;53144;51.524;5.080;2022-07-12T12:52:29;30.63;43.36
66343;DHT22;53144;51.524;5.080;2022-07-12T12:54:56;30.70;45.40
66343;DHT22;53144;51.524;5.080;2022-07-12T12:57:21;31.91;40.82
66343;DHT22;53144;51.524;5.080;2022-07-12T12:59:49;30.87;42.00
66343;DHT22;53144;51.524;5.080;2022-07-12T13:02:14;30.96;42.64
66343;DHT22;53144;51.524;5.080;2022-07-12T13:04:40;30.99;43.75
66343;DHT22;53144;51.524;5.080;2022-07-12T13:07:05;30.47;42.60
66343;DHT22;53144;51.524;5.080;2022-07-12T13:09:31;30.85;41.34
66343;DHT22;53144;51.524;5.080;2022-07-12T13:11:58;30.54;40.71
66343;DHT22;53144;51.524;5.080;2022-07-12T13:14:27;30.77;39.42
66343;DHT22;53144;51.524;5.080;2022-07-12T13:16:52;30.94;40.21
66343;DHT22;53144;51.524;5.080;2022-07-12T13:19:18;31.18;39.46
66343;DHT22;53144;51.524;5.080;2022-07-12T13:21:47;31.16;39.09
66343;DHT22;53144;51.524;5.080;2022-07-12T13:24:12;31.22;38.12
66343;DHT22;53144;51.524;5.080;2022-07-12T13:26:38;30.95;38.15
66343;DHT22;53144;51.524;5.080;2022-07-12T13:29:04;31.12;37.11
66343;DHT22;53144;51.524;5.080;2022-07-12T13:31:29;31.03;38.72
66343;DHT22;53144;51.524;5.080;2022-07-12T13:33:54;30.56;39.49
66343;DHT22;53144;51.524;5.080;2022-07-12T13:36:21;30.44;40.94
66343;DHT22;53144;51.524;5.080;2022-07-12T13:38:47;30.48;41.33
66343;DHT22;53144;51.524;5.080;2022-07-12T13:41:12;30.45;40.73
66343;DHT22;53144;51.524;5.080;2022-07-12T13:43:38;30.34;39.99
66343;DHT22;53144;51.524;5.080;2022-07-12T13:46:03;30.19;38.44
66343;DHT22;53144;51.524;5.080;2022-07-12T13:48:30;30.01;39.93
66343;DHT22;53144;51.524;5.080;2022-07-12T13:50:55;29.27;41.94
66343;DHT22;53144;51.524;5.080;2022-07-12T13:53:21;29.50;42.84
66343;DHT22;53144;51.524;5.080;2022-07-12T13:55:46;29.82;39.42
66343;DHT22;53144;51.524;5.080;2022-07-12T13:58:12;29.14;43.18
66343;DHT22;53144;51.524;5.080;2022-07-12T14:00:41;29.82;43.92
66343;DHT22;53144;51.524;5.080;2022-07-12T14:03:06;30.41;39.46
66343;DHT22;53144;51.524;5.080;2022-07-12T14:05:33;30.08;42.02
66343;DHT22;53144;51.524;5.080;2022-07-12T14:07:58;30.13;39.94
66343;DHT22;53144;51.524;5.080;2022-07-12T14:10:24;30.14;38.25
66343;DHT22;53144;51.524;5.080;2022-07-12T14:12:51;29.58;39.87
66343;DHT22;53144;51.524;5.080;2022-07-12T14:15:17;29.66;42.82
66343;DHT22;53144;51.524;5.080;2022-07-12T14:18:02;29.73;41.34
66343;DHT22;53144;51.524;5.080;2022-07-12T14:20:29;29.88;41.68
66343;DHT22;53144;51.524;5.080;2022-07-12T14:22:55;29.78;43.01
66343;DHT22;53144;51.524;5.080;2022-07-12T14:25:21;29.50;41.88
66343;DHT22;53144;51.524;5.080;2022-07-12T14:27:46;28.90;49.32
66343;DHT22;53144;51.524;5.080;2022-07-12T14:30:13;29.03;44.60
66343;DHT22;53144;51.524;5.080;2022-07-12T14:32:39;28.86;47.27
66343;DHT22;53144;51.524;5.080;2022-07-12T14:35:06;28.99;47.46
66343;DHT22;53144;51.524;5.080;2022-07-12T14:37:32;28.93;46.72
66343;DHT22;53144;51.524;5.080;2022-07-12T14:39:58;28.94;46.14
66343;DHT22;53144;51.524;5.080;2022-07-12T14:42:23;28.63;45.98
66343;DHT22;53144;51.524;5.080;2022-07-12T14:44:49;29.03;46.08
66343;DHT22;53144;51.524;5.080;2022-07-12T14:47:14;29.02;45.79
66343;DHT22;53144;51.524;5.080;2022-07-12T14:49:40;28.94;44.86
66343;DHT22;53144;51.524;5.080;2022-07-12T14:52:05;28.87;46.49
66343;DHT22;53144;51.524;5.080;2022-07-12T14:54:34;28.79;44.68
66343;DHT22;53144;51.524;5.080;2022-07-12T14:57:00;28.67;44.86
66343;DHT22;53144;51.524;5.080;2022-07-12T14:59:25;28.51;48.37
66343;DHT22;53144;51.524;5.080;2022-07-12T15:01:50;28.44;45.21
66343;DHT22;53144;51.524;5.080;2022-07-12T15:04:19;28.17;45.39
66343;DHT22;53144;51.524;5.080;2022-07-12T15:06:44;28.17;47.27
66343;DHT22;53144;51.524;5.080;2022-07-12T15:09:10;27.98;50.06
66343;DHT22;53144;51.524;5.080;2022-07-12T15:11:35;28.19;46.67
66343;DHT22;53144;51.524;5.080;2022-07-12T15:14:02;28.00;51.18
66343;DHT22;53144;51.524;5.080;2022-07-12T15:16:28;28.39;45.59
66343;DHT22;53144;51.524;5.080;2022-07-12T15:18:53;28.48;46.09
66343;DHT22;53144;51.524;5.080;2022-07-12T15:21:19;28.45;45.92
66343;DHT22;53144;51.524;5.080;2022-07-12T15:23:45;28.46;44.12
66343;DHT22;53144;51.524;5.080;2022-07-12T15:26:10;27.91;49.65
66343;DHT22;53144;51.524;5.080;2022-07-12T15:28:49;28.12;47.88
66343;DHT22;53144;51.524;5.080;2022-07-12T15:31:15;28.05;51.82
66343;DHT22;53144;51.524;5.080;2022-07-12T15:33:40;28.22;47.05
66343;DHT22;53144;51.524;5.080;2022-07-12T15:36:06;27.98;48.86
66343;DHT22;53144;51.524;5.080;2022-07-12T15:38:31;28.24;46.73
66343;DHT22;53144;51.524;5.080;2022-07-12T15:40:56;27.97;50.15
66343;DHT22;53144;51.524;5.080;2022-07-12T15:43:23;28.17;51.17